Terminal Aerodrome Forecast
Issued by NWS

Home | Current Version | Previous Version | Text Only | Print | Product List | Glossary On
Versions: 1 2 3 4 5 6 7 8 9 10 11 12
000
FTUS44 KSJT 261127
TAFBBD
TAF
KBBD 261127Z 2612/2712 19008KT P6SM BKN022
     FM261600 22008KT P6SM SCT035 BKN250
     FM270300 16007KT P6SM BKN250
     FM271000 18005KT P6SM BKN024
      AMD NOT SKED=

USA.gov is the U.S. government's official web portal to all federal, state and local government web resources and services.